createdAt,value
2022-10-28T00:00:48.289Z,98596.47
2022-10-28T00:03:15.531Z,98601.56
2022-10-28T00:05:44.049Z,98604.00
2022-10-28T00:08:11.361Z,98593.47
2022-10-28T00:10:38.536Z,98579.69
2022-10-28T00:13:05.629Z,98582.13
2022-10-28T00:15:34.421Z,98582.13
2022-10-28T00:18:01.566Z,98589.13
2022-10-28T00:20:30.356Z,98587.28
2022-10-28T00:22:58.800Z,98584.03
2022-10-28T00:25:25.922Z,98580.53
2022-10-28T00:27:53.315Z,98578.13
2022-10-28T00:30:20.740Z,98580.28
2022-10-28T00:32:48.030Z,98579.44
2022-10-28T00:35:15.237Z,98575.38
2022-10-28T00:37:42.587Z,98579.72
2022-10-28T00:40:12.097Z,98575.38
2022-10-28T00:42:39.188Z,98578.34
2022-10-28T00:45:09.275Z,98581.28
2022-10-28T00:47:44.042Z,98587.78
2022-10-28T00:50:20.171Z,98581.03
2022-10-28T00:52:57.290Z,98563.47
2022-10-28T00:55:26.094Z,98573.19
2022-10-28T00:57:55.144Z,98575.34
2022-10-28T01:03:15.649Z,98572.41
2022-10-28T01:05:46.370Z,98569.41
2022-10-28T01:08:14.249Z,98584.03
2022-10-28T01:11:04.762Z,98577.03
2022-10-28T01:13:43.852Z,98581.88
2022-10-28T01:16:26.219Z,98577.53
2022-10-28T01:19:07.225Z,98574.84
2022-10-28T01:22:07.519Z,98572.13
2022-10-28T01:25:07.280Z,98575.66
2022-10-28T01:28:13.471Z,98585.88
2022-10-28T01:31:07.757Z,98576.69
2022-10-28T01:33:38.297Z,98576.16
2022-10-28T01:36:14.299Z,98573.75
2022-10-28T01:38:49.598Z,98567.78
2022-10-28T01:41:22.655Z,98563.16
2022-10-28T01:43:56.491Z,98576.94
2022-10-28T01:46:28.940Z,98576.16
2022-10-28T01:49:01.114Z,98577.25
2022-10-28T01:51:32.751Z,98580.75
2022-10-28T01:54:03.351Z,98581.28
2022-10-28T01:56:36.061Z,98579.94
2022-10-28T01:59:06.415Z,98571.28
2022-10-28T02:01:36.483Z,98573.69
2022-10-28T02:04:04.042Z,98573.69
2022-10-28T02:06:32.840Z,98573.69
2022-10-28T02:09:10.306Z,98575.88
2022-10-28T02:11:51.442Z,98586.13
2022-10-28T02:14:32.436Z,98588.03
2022-10-28T02:17:10.467Z,98579.91
2022-10-28T02:19:44.572Z,98583.41
2022-10-28T02:22:20.462Z,98569.41
2022-10-28T02:24:54.693Z,98560.97
2022-10-28T02:27:32.902Z,98571.50
2022-10-28T02:30:04.599Z,98570.44
2022-10-28T02:32:37.913Z,98576.94
2022-10-28T02:35:11.772Z,98565.34
2022-10-28T02:37:40.816Z,98561.00
2022-10-28T02:40:14.669Z,98565.06
2022-10-28T02:42:48.741Z,98569.13
2022-10-28T02:45:17.639Z,98563.16
2022-10-28T02:47:50.633Z,98567.75
2022-10-28T02:50:22.097Z,98561.81
2022-10-28T02:52:53.821Z,98562.91
2022-10-28T02:55:24.154Z,98563.16
2022-10-28T02:57:51.726Z,98562.91
2022-10-28T03:00:21.905Z,98564.75
2022-10-28T03:02:50.496Z,98555.00
2022-10-28T03:05:17.743Z,98557.72
2022-10-28T03:07:44.954Z,98555.56
2022-10-28T03:10:12.057Z,98549.91
2022-10-28T03:12:39.244Z,98557.97
2022-10-28T03:15:07.346Z,98551.53
2022-10-28T03:17:34.459Z,98546.66
2022-10-28T03:20:03.071Z,98556.16
2022-10-28T03:22:30.168Z,98556.94
2022-10-28T03:24:57.262Z,98557.22
2022-10-28T03:27:24.412Z,98554.81
2022-10-28T03:29:51.484Z,98555.81
2022-10-28T03:32:18.581Z,98548.56
2022-10-28T03:34:45.732Z,98549.13
2022-10-28T03:37:14.509Z,98552.84
2022-10-28T03:39:41.596Z,98541.81
2022-10-28T03:42:08.715Z,98544.22
2022-10-28T03:44:35.809Z,98540.38
2022-10-28T03:47:02.924Z,98550.97
2022-10-28T03:49:30.002Z,98554.75
2022-10-28T03:51:57.099Z,98557.72
2022-10-28T03:54:25.612Z,98555.28
2022-10-28T03:56:52.720Z,98552.06
2022-10-28T03:59:20.397Z,98547.22
2022-10-28T04:01:47.747Z,98564.22
2022-10-28T04:04:14.898Z,98564.75
2022-10-28T04:06:42.011Z,98558.00
2022-10-28T04:09:09.152Z,98558.00
2022-10-28T04:11:37.572Z,98561.56
2022-10-28T04:14:04.728Z,98559.06
2022-10-28T04:16:31.829Z,98563.91
2022-10-28T04:18:59.017Z,98554.19
2022-10-28T04:21:26.310Z,98561.50
2022-10-28T04:23:53.385Z,98555.81
2022-10-28T04:26:20.456Z,98556.31
2022-10-28T04:28:48.927Z,98553.97
2022-10-28T04:31:16.017Z,98552.63
2022-10-28T04:33:43.101Z,98553.13
2022-10-28T04:36:10.350Z,98548.28
2022-10-28T04:38:37.427Z,98547.50
2022-10-28T04:41:04.799Z,98549.13
2022-10-28T04:43:31.905Z,98547.47
2022-10-28T04:46:00.334Z,98545.88
2022-10-28T04:48:27.534Z,98560.66
2022-10-28T04:50:56.990Z,98550.44
2022-10-28T04:53:24.107Z,98559.06
2022-10-28T04:55:51.321Z,98532.84
2022-10-28T04:58:18.416Z,98555.81
2022-10-28T05:00:45.502Z,98541.22
2022-10-28T05:03:13.925Z,98547.97
2022-10-28T05:05:41.131Z,98550.38
2022-10-28T05:08:08.219Z,98559.56
2022-10-28T05:10:35.305Z,98560.09
2022-10-28T05:13:02.448Z,98556.31
2022-10-28T05:15:29.544Z,98559.28
2022-10-28T05:17:56.754Z,98559.28
2022-10-28T05:20:25.414Z,98570.06
2022-10-28T05:22:54.252Z,98573.81
2022-10-28T05:25:22.345Z,98564.09
2022-10-28T05:27:49.837Z,98569.31
2022-10-28T05:30:17.680Z,98580.38
2022-10-28T05:32:45.081Z,98563.59
2022-10-28T05:35:12.317Z,98572.28
2022-10-28T05:37:40.757Z,98570.16
2022-10-28T05:40:09.226Z,98569.56
2022-10-28T05:42:40.760Z,98575.75
2022-10-28T05:45:08.596Z,98572.25
2022-10-28T05:47:39.197Z,98576.34
2022-10-28T05:50:07.814Z,98571.94
2022-10-28T05:52:34.912Z,98576.50
2022-10-28T05:55:03.938Z,98586.72
2022-10-28T05:57:33.810Z,98568.16
2022-10-28T06:00:01.004Z,98560.88
2022-10-28T06:02:28.224Z,98569.25
2022-10-28T06:04:55.360Z,98563.38
2022-10-28T06:07:22.648Z,98563.09
2022-10-28T06:09:49.748Z,98566.31
2022-10-28T06:12:16.650Z,98571.75
2022-10-28T06:14:43.759Z,98573.59
2022-10-28T06:17:11.028Z,98582.28
2022-10-28T06:19:38.260Z,98585.44
2022-10-28T06:22:05.343Z,98590.63
2022-10-28T06:24:32.433Z,98599.72
2022-10-28T06:26:59.684Z,98604.31
2022-10-28T06:29:28.192Z,98596.78
2022-10-28T06:31:55.273Z,98593.53
2022-10-28T06:34:22.510Z,98601.88
2022-10-28T06:36:49.740Z,98595.72
2022-10-28T06:39:18.429Z,98600.00
2022-10-28T06:41:45.561Z,98599.19
2022-10-28T06:44:12.649Z,98588.13
2022-10-28T06:46:42.623Z,98593.28
2022-10-28T06:49:09.923Z,98595.97
2022-10-28T06:51:37.026Z,98604.38
2022-10-28T06:54:04.233Z,98610.81
2022-10-28T06:56:31.346Z,98619.47
2022-10-28T06:58:58.418Z,98622.44
2022-10-28T07:01:25.804Z,98630.81
2022-10-28T07:03:54.362Z,98631.66
2022-10-28T07:06:21.458Z,98637.03
2022-10-28T07:08:48.536Z,98627.84
2022-10-28T07:11:15.639Z,98632.94
2022-10-28T07:13:44.309Z,98636.13
2022-10-28T07:16:13.719Z,98639.91
2022-10-28T07:18:40.936Z,98639.69
2022-10-28T07:21:09.445Z,98637.72
2022-10-28T07:23:36.519Z,98646.38
2022-10-28T07:26:04.000Z,98650.09
2022-10-28T07:28:31.437Z,98653.09
2022-10-28T07:31:00.737Z,98666.38
2022-10-28T07:33:28.075Z,98663.91
2022-10-28T07:35:55.261Z,98664.53
2022-10-28T07:38:23.798Z,98657.75
2022-10-28T07:40:50.906Z,98657.50
2022-10-28T07:43:17.998Z,98649.13
2022-10-28T07:45:45.285Z,98652.38
2022-10-28T07:48:12.417Z,98644.53
2022-10-28T07:50:40.441Z,98638.88
2022-10-28T07:53:07.775Z,98646.94
2022-10-28T07:55:36.283Z,98644.72
2022-10-28T07:58:03.466Z,98647.47
2022-10-28T08:00:31.929Z,98651.50
2022-10-28T08:02:59.021Z,98659.84
2022-10-28T08:05:26.153Z,98670.16
2022-10-28T08:07:53.503Z,98662.59
2022-10-28T08:10:20.743Z,98670.41
2022-10-28T08:12:49.162Z,98668.00
2022-10-28T08:15:16.284Z,98683.06
2022-10-28T08:17:43.374Z,98677.09
2022-10-28T08:20:10.806Z,98672.53
2022-10-28T08:22:37.898Z,98668.00
2022-10-28T08:25:05.563Z,98666.63
2022-10-28T08:27:32.620Z,98664.78
2022-10-28T08:30:01.205Z,98668.31
2022-10-28T08:32:28.373Z,98662.63
2022-10-28T08:34:55.456Z,98663.16
2022-10-28T08:37:22.708Z,98658.00
2022-10-28T08:39:50.010Z,98656.66
2022-10-28T08:42:35.295Z,98649.38
2022-10-28T08:45:21.928Z,98652.88
2022-10-28T08:47:59.615Z,98652.63
2022-10-28T08:50:28.219Z,98647.78
2022-10-28T08:52:59.299Z,98634.81
2022-10-28T08:55:30.397Z,98644.72
2022-10-28T08:58:02.700Z,98650.09
2022-10-28T09:00:33.366Z,98647.16
2022-10-28T09:03:16.226Z,98624.75
2022-10-28T09:05:45.504Z,98624.25
2022-10-28T09:08:21.001Z,98619.00
2022-10-28T09:11:11.893Z,98619.91
2022-10-28T09:13:52.276Z,98621.06
2022-10-28T09:16:31.370Z,98622.47
2022-10-28T09:19:03.790Z,98625.41
2022-10-28T09:21:35.318Z,98630.53
2022-10-28T09:24:14.031Z,98632.41
2022-10-28T09:26:49.421Z,98632.41
2022-10-28T09:29:26.294Z,98625.84
2022-10-28T09:32:01.527Z,98623.25
2022-10-28T09:34:39.549Z,98620.75
2022-10-28T09:37:13.923Z,98613.50
2022-10-28T09:39:43.654Z,98610.50
2022-10-28T09:42:14.738Z,98613.44
2022-10-28T09:44:47.532Z,98612.66
2022-10-28T09:47:19.781Z,98606.16
2022-10-28T09:49:49.172Z,98608.09
2022-10-28T09:52:21.698Z,98607.81
2022-10-28T09:54:51.631Z,98615.91
2022-10-28T09:57:19.105Z,98617.56
2022-10-28T09:59:46.828Z,98617.31
2022-10-28T10:02:26.947Z,98613.25
2022-10-28T10:04:54.975Z,98611.06
2022-10-28T10:07:29.128Z,98617.81
2022-10-28T10:09:59.899Z,98622.88
2022-10-28T10:12:28.318Z,98612.59
2022-10-28T10:14:57.781Z,98611.81
2022-10-28T10:17:33.602Z,98621.28
2022-10-28T10:20:04.366Z,98616.16
2022-10-28T10:22:33.053Z,98611.25
2022-10-28T10:25:00.500Z,98613.72
2022-10-28T10:27:30.306Z,98607.50
2022-10-28T10:29:58.621Z,98607.69
2022-10-28T10:32:31.229Z,98603.88
2022-10-28T10:35:02.766Z,98606.88
2022-10-28T10:37:33.309Z,98609.25
2022-10-28T10:40:17.638Z,98605.50
2022-10-28T10:42:57.393Z,98605.84
2022-10-28T10:45:32.471Z,98602.91
2022-10-28T10:48:12.323Z,98604.28
2022-10-28T10:50:40.133Z,98604.63
2022-10-28T10:53:21.341Z,98598.16
2022-10-28T10:55:51.417Z,98592.50
2022-10-28T10:58:21.603Z,98594.44
2022-10-28T11:00:50.947Z,98596.84
2022-10-28T11:03:23.957Z,98588.53
2022-10-28T11:05:59.997Z,98592.03
2022-10-28T11:08:41.898Z,98593.13
2022-10-28T11:11:13.787Z,98591.53
2022-10-28T11:13:45.147Z,98589.13
2022-10-28T11:16:21.765Z,98584.50
2022-10-28T11:18:52.259Z,98583.69
2022-10-28T11:21:45.919Z,98581.25
2022-10-28T11:24:30.850Z,98565.09
2022-10-28T11:27:06.361Z,98565.69
2022-10-28T11:29:33.576Z,98558.69
2022-10-28T11:32:18.055Z,98558.13
2022-10-28T11:35:06.646Z,98552.44
2022-10-28T11:37:49.619Z,98551.09
2022-10-28T11:40:27.981Z,98545.19
2022-10-28T11:43:08.906Z,98539.78
2022-10-28T11:45:45.799Z,98540.59
2022-10-28T11:48:31.872Z,98544.66
2022-10-28T11:51:10.009Z,98550.03
2022-10-28T11:53:49.235Z,98550.88
2022-10-28T11:56:27.461Z,98549.28
2022-10-28T11:59:03.547Z,98549.28
2022-10-28T12:01:44.814Z,98543.03
2022-10-28T12:04:25.749Z,98539.78
2022-10-28T12:07:10.557Z,98539.56
2022-10-28T12:09:53.726Z,98539.66
2022-10-28T12:12:26.232Z,98538.84
2022-10-28T12:15:01.708Z,98536.72
2022-10-28T12:17:35.034Z,98536.19
2022-10-28T12:20:11.243Z,98535.63
2022-10-28T12:22:48.068Z,98535.63
2022-10-28T12:25:20.447Z,98527.00
2022-10-28T12:27:49.414Z,98522.41
2022-10-28T12:30:21.662Z,98524.25
2022-10-28T12:32:53.045Z,98519.38
2022-10-28T12:35:24.913Z,98516.13
2022-10-28T12:37:58.072Z,98518.25
2022-10-28T12:40:29.234Z,98513.19
2022-10-28T12:43:03.801Z,98504.53
2022-10-28T12:45:32.625Z,98495.88
2022-10-28T12:48:04.476Z,98501.25
2022-10-28T12:50:38.034Z,98504.22
2022-10-28T12:53:27.586Z,98508.31
2022-10-28T12:55:58.759Z,98515.38
2022-10-28T12:58:32.308Z,98510.75
2022-10-28T13:01:03.035Z,98514.56
2022-10-28T13:03:31.331Z,98504.56
2022-10-28T13:06:21.977Z,98496.19
2022-10-28T13:09:24.225Z,98496.75
2022-10-28T13:12:26.801Z,98497.00
2022-10-28T13:15:17.789Z,98486.19
2022-10-28T13:18:00.935Z,98488.63
2022-10-28T13:20:41.292Z,98482.97
2022-10-28T13:23:20.720Z,98492.13
2022-10-28T13:25:59.817Z,98488.34
2022-10-28T13:28:30.352Z,98479.19
2022-10-28T13:31:00.350Z,98484.28
2022-10-28T13:33:29.704Z,98481.03
2022-10-28T13:36:10.289Z,98479.19
2022-10-28T13:38:38.439Z,98477.78
2022-10-28T13:41:25.637Z,98471.81
2022-10-28T13:44:26.862Z,98464.53
2022-10-28T13:47:26.837Z,98463.97
2022-10-28T13:50:21.245Z,98469.38
2022-10-28T13:53:41.470Z,98470.47
2022-10-28T13:56:25.174Z,98467.03
2022-10-28T13:58:54.865Z,98474.03
2022-10-28T14:01:56.784Z,98473.50
2022-10-28T14:04:38.317Z,98475.16
2022-10-28T14:07:19.463Z,98479.19
2022-10-28T14:09:47.967Z,98464.28
2022-10-28T14:12:20.961Z,98464.28
2022-10-28T14:14:59.386Z,98461.34
2022-10-28T14:17:33.451Z,98476.16
2022-10-28T14:20:04.237Z,98466.97
2022-10-28T14:22:33.785Z,98472.34
2022-10-28T14:25:01.579Z,98473.44
2022-10-28T14:27:42.497Z,98460.75
2022-10-28T14:30:21.401Z,98473.19
2022-10-28T14:33:02.335Z,98473.47
2022-10-28T14:35:38.291Z,98466.16
2022-10-28T14:38:38.587Z,98468.63
2022-10-28T14:41:17.139Z,98454.59
2022-10-28T14:43:57.865Z,98458.13
2022-10-28T14:46:35.638Z,98458.06
2022-10-28T14:49:04.889Z,98450.78
2022-10-28T14:51:40.111Z,98459.13
2022-10-28T14:54:13.310Z,98452.63
2022-10-28T14:56:41.354Z,98453.72
2022-10-28T14:59:23.003Z,98447.50
2022-10-28T15:01:59.853Z,98447.00
2022-10-28T15:04:28.635Z,98451.31
2022-10-28T15:06:57.422Z,98449.75
2022-10-28T15:09:27.671Z,98449.94
2022-10-28T15:11:57.055Z,98453.44
2022-10-28T15:14:27.353Z,98455.06
2022-10-28T15:16:54.813Z,98445.91
2022-10-28T15:19:24.613Z,98444.53
2022-10-28T15:22:11.814Z,98447.78
2022-10-28T15:24:43.009Z,98454.00
2022-10-28T15:27:13.350Z,98459.13
2022-10-28T15:29:42.220Z,98457.56
2022-10-28T15:32:26.020Z,98450.00
2022-10-28T15:34:53.197Z,98454.63
2022-10-28T15:37:24.055Z,98450.31
2022-10-28T15:39:52.413Z,98433.84
2022-10-28T15:42:39.009Z,98440.59
2022-10-28T15:45:15.395Z,98439.22
2022-10-28T15:47:44.858Z,98444.09
2022-10-28T15:50:27.841Z,98439.81
2022-10-28T15:53:31.255Z,98443.28
2022-10-28T15:56:09.281Z,98437.88
2022-10-28T15:58:39.106Z,98446.00
2022-10-28T16:01:10.089Z,98439.22
2022-10-28T16:03:45.417Z,98436.81
2022-10-28T16:06:24.754Z,98434.34
2022-10-28T16:09:06.428Z,98441.13
2022-10-28T16:11:35.794Z,98441.94
2022-10-28T16:14:17.023Z,98436.56
2022-10-28T16:16:44.250Z,98420.59
2022-10-28T16:19:25.201Z,98436.81
2022-10-28T16:21:52.342Z,98441.97
2022-10-28T16:24:20.785Z,98442.50
2022-10-28T16:26:47.900Z,98431.94
2022-10-28T16:29:15.009Z,98438.72
2022-10-28T16:31:42.304Z,98431.94
2022-10-28T16:34:14.558Z,98439.25
2022-10-28T16:36:41.625Z,98430.34
2022-10-28T16:39:11.802Z,98414.41
2022-10-28T16:41:40.306Z,98429.00
2022-10-28T16:44:16.535Z,98433.31
2022-10-28T16:46:43.714Z,98431.41
2022-10-28T16:49:10.784Z,98429.22
2022-10-28T16:51:37.862Z,98430.59
2022-10-28T16:54:04.989Z,98439.75
2022-10-28T16:56:32.061Z,98447.31
2022-10-28T16:59:00.526Z,98451.66
2022-10-28T17:01:27.863Z,98454.63
2022-10-28T17:03:55.069Z,98457.31
2022-10-28T17:06:22.410Z,98469.22
2022-10-28T17:09:02.396Z,98471.91
2022-10-28T17:13:59.737Z,98480.03
2022-10-28T17:16:26.845Z,98483.25
2022-10-28T17:18:53.940Z,98476.22
2022-10-28T17:21:21.037Z,98480.56
2022-10-28T17:23:48.252Z,98474.34
2022-10-28T17:26:15.537Z,98485.97
2022-10-28T17:28:42.908Z,98489.47
2022-10-28T17:31:11.408Z,98492.97
2022-10-28T17:33:38.485Z,98484.59
2022-10-28T17:36:07.245Z,98492.13
2022-10-28T17:38:34.444Z,98493.16
2022-10-28T17:41:01.870Z,98496.16
2022-10-28T17:43:29.251Z,98497.25
2022-10-28T17:46:03.948Z,98499.94
2022-10-28T17:48:33.051Z,98505.88
2022-10-28T17:51:00.308Z,98504.81
2022-10-28T17:53:27.447Z,98501.34
2022-10-28T17:55:57.794Z,98498.38
2022-10-28T17:58:25.615Z,98488.91
2022-10-28T18:00:56.615Z,98486.47
2022-10-28T18:03:23.874Z,98481.91
2022-10-28T18:05:52.375Z,98481.34
2022-10-28T18:08:19.641Z,98476.50
2022-10-28T18:10:53.477Z,98479.47
2022-10-28T18:13:20.725Z,98481.91
2022-10-28T18:15:47.941Z,98479.22
2022-10-28T18:18:15.034Z,98469.75
2022-10-28T18:20:42.191Z,98466.25
2022-10-28T18:23:10.629Z,98459.75
2022-10-28T18:25:37.732Z,98463.25
2022-10-28T18:28:05.530Z,98464.53
2022-10-28T18:30:32.755Z,98464.28
2022-10-28T18:32:59.877Z,98476.75
2022-10-28T18:35:27.671Z,98462.38
2022-10-28T18:37:55.008Z,98483.75
2022-10-28T18:40:23.815Z,98477.84
2022-10-28T18:42:51.027Z,98476.22
2022-10-28T18:45:18.231Z,98478.91
2022-10-28T18:47:45.325Z,98474.88
2022-10-28T18:50:12.516Z,98471.34
2022-10-28T18:52:39.663Z,98465.44
2022-10-28T18:55:07.375Z,98476.50
2022-10-28T18:57:36.010Z,98471.13
2022-10-28T19:00:17.912Z,98460.56
2022-10-28T19:02:47.803Z,98467.03
2022-10-28T19:05:15.204Z,98468.66
2022-10-28T19:07:42.527Z,98469.75
2022-10-28T19:10:10.025Z,98461.63
2022-10-28T19:12:42.866Z,98451.91
2022-10-28T19:15:12.302Z,98447.88
2022-10-28T19:17:39.414Z,98453.25
2022-10-28T19:20:07.556Z,98453.72
2022-10-28T19:22:34.706Z,98452.66
2022-10-28T19:25:01.839Z,98453.25
2022-10-28T19:27:28.922Z,98456.47
2022-10-28T19:29:57.559Z,98455.94
2022-10-28T19:32:24.658Z,98462.16
2022-10-28T19:34:51.743Z,98461.09
2022-10-28T19:37:18.839Z,98455.44
2022-10-28T19:39:45.930Z,98448.13
2022-10-28T19:42:13.032Z,98452.72
2022-10-28T19:44:40.117Z,98445.16
2022-10-28T19:47:08.762Z,98443.53
2022-10-28T19:49:39.296Z,98436.50
2022-10-28T19:52:07.982Z,98434.09
2022-10-28T19:54:35.077Z,98438.69
2022-10-28T19:57:02.228Z,98443.53
2022-10-28T19:59:29.366Z,98454.34
2022-10-28T20:01:56.559Z,98455.63
2022-10-28T20:04:25.254Z,98451.84
2022-10-28T20:06:52.538Z,98461.81
2022-10-28T20:09:19.662Z,98457.84
2022-10-28T20:11:46.734Z,98466.22
2022-10-28T20:14:13.944Z,98469.19
2022-10-28T20:16:42.372Z,98472.19
2022-10-28T20:19:09.885Z,98481.63
2022-10-28T20:21:38.870Z,98468.94
2022-10-28T20:24:07.073Z,98465.69
2022-10-28T20:26:36.658Z,98470.28
2022-10-28T20:29:04.605Z,98474.63
2022-10-28T20:31:32.474Z,98471.91
2022-10-28T20:34:01.298Z,98477.31
2022-10-28T20:36:29.890Z,98471.13
2022-10-28T20:38:59.660Z,98475.94
2022-10-28T20:41:29.513Z,98482.97
2022-10-28T20:43:56.857Z,98487.53
2022-10-28T20:46:25.062Z,98481.31
2022-10-28T20:48:52.871Z,98478.88
2022-10-28T20:51:20.347Z,98476.94
2022-10-28T20:53:47.429Z,98467.22
2022-10-28T20:56:17.378Z,98468.84
2022-10-28T20:58:44.497Z,98475.66
2022-10-28T21:01:13.831Z,98474.31
2022-10-28T21:03:41.408Z,98469.47
2022-10-28T21:06:08.666Z,98477.56
2022-10-28T21:08:36.252Z,98482.69
2022-10-28T21:11:03.662Z,98484.88
2022-10-28T21:13:32.754Z,98481.91
2022-10-28T21:16:03.811Z,98483.78
2022-10-28T21:18:31.226Z,98489.72
2022-10-28T21:21:00.002Z,98487.28
2022-10-28T21:23:28.153Z,98485.66
2022-10-28T21:25:56.965Z,98482.94
2022-10-28T21:28:24.309Z,98464.00
2022-10-28T21:30:58.965Z,98484.56
2022-10-28T21:33:26.066Z,98486.19
2022-10-28T21:35:56.671Z,98475.88
2022-10-28T21:38:24.532Z,98469.13
2022-10-28T21:40:59.017Z,98467.53
2022-10-28T21:43:27.703Z,98470.16
2022-10-28T21:45:56.162Z,98454.53
2022-10-28T21:48:23.721Z,98465.13
2022-10-28T21:50:52.851Z,98455.13
2022-10-28T21:53:20.456Z,98462.97
2022-10-28T21:55:49.172Z,98456.72
2022-10-28T21:58:17.996Z,98459.22
2022-10-28T22:00:45.390Z,98467.59
2022-10-28T22:03:13.952Z,98473.00
2022-10-28T22:05:49.538Z,98474.06
2022-10-28T22:08:16.953Z,98472.41
2022-10-28T22:10:44.377Z,98474.31
2022-10-28T22:13:11.632Z,98471.03
2022-10-28T22:15:38.734Z,98478.31
2022-10-28T22:18:05.936Z,98469.66
2022-10-28T22:20:34.413Z,98476.94
2022-10-28T22:23:01.700Z,98475.31
2022-10-28T22:25:28.794Z,98470.16
2022-10-28T22:27:55.892Z,98472.88
2022-10-28T22:30:22.987Z,98465.06
2022-10-28T22:32:50.073Z,98455.84
2022-10-28T22:35:17.202Z,98453.19
2022-10-28T22:37:45.669Z,98456.97
2022-10-28T22:40:12.762Z,98462.13
2022-10-28T22:42:39.844Z,98451.31
2022-10-28T22:45:07.834Z,98460.47
2022-10-28T22:47:35.018Z,98456.19
2022-10-28T22:50:02.234Z,98460.53
2022-10-28T22:52:29.325Z,98464.88
2022-10-28T22:54:57.751Z,98467.53
2022-10-28T22:57:24.885Z,98470.75
2022-10-28T22:59:51.971Z,98466.13
2022-10-28T23:02:19.200Z,98480.69
2022-10-28T23:04:46.653Z,98473.41
2022-10-28T23:07:13.751Z,98475.31
2022-10-28T23:09:40.828Z,98476.38
2022-10-28T23:12:09.573Z,98483.41
2022-10-28T23:14:36.661Z,98475.56
2022-10-28T23:17:03.733Z,98470.44
2022-10-28T23:19:30.830Z,98469.09
2022-10-28T23:21:57.919Z,98462.56
2022-10-28T23:24:25.012Z,98468.78
2022-10-28T23:26:52.304Z,98463.69
2022-10-28T23:29:20.754Z,98459.91
2022-10-28T23:31:47.863Z,98460.75
2022-10-28T23:34:14.958Z,98460.47
2022-10-28T23:36:42.089Z,98470.22
2022-10-28T23:39:09.401Z,98465.06
2022-10-28T23:41:36.510Z,98468.63
2022-10-28T23:44:03.673Z,98469.72
2022-10-28T23:46:36.569Z,98468.03
2022-10-28T23:49:04.579Z,98466.13
2022-10-28T23:51:31.708Z,98461.81
2022-10-28T23:53:58.806Z,98466.13
2022-10-28T23:56:25.923Z,98463.13
2022-10-28T23:58:52.997Z,98472.06
